Weather at Latrobe Valley Airport

Public forecast

Using degrees Celsius for public forecast. Weather courtesy of forecast.io.

Closest aviation weather report (METAR) to Latrobe Valley Airport

Closest report is Melbourne International Airport, 83.6 nm (154.8 km) WNW.

2022/12/05 17:00 (retrieved 16 minutes ago)

YMML 051700Z 25013KT 5000 -DZ FEW004 BKN008 12/11 Q1011

Closest aviation forecast (TAF) to Latrobe Valley Airport

Closest forecast is Melbourne International Airport, 83.6 nm (154.8 km) WNW.

2022/12/05 16:29 Ammendment (retrieved 47 minutes ago)

TAF AMD YMML 051609Z 0516/0618 23012KT 4000 -DZ BKN007 FM051800 22012KT 8000 -DZ BKN008 FM052000 20010KT 9999 -DZ BKN012 FM052200 18010KT 9999 NSW FEW020 BKN030 FM060100 17010KT 9999 SCT040 FM061200 29004KT CAVOK TEMPO 0516/0519 3000 DZ BKN005 INTER 0519/0521 3000 DZ BKN008